sensor_id;sensor_type;location;lat;lon;timestamp;temperature;humidity
18321;DHT22;54904;54.350;18.664;2022-10-31T00:01:20;13.90;99.90
18321;DHT22;54904;54.350;18.664;2022-10-31T00:03:49;13.90;99.90
18321;DHT22;54904;54.350;18.664;2022-10-31T00:06:16;13.90;99.90
18321;DHT22;54904;54.350;18.664;2022-10-31T00:08:44;13.90;99.90
18321;DHT22;54904;54.350;18.664;2022-10-31T00:11:11;13.90;99.90
18321;DHT22;54904;54.350;18.664;2022-10-31T00:13:39;13.90;99.90
18321;DHT22;54904;54.350;18.664;2022-10-31T00:16:14;13.80;99.90
18321;DHT22;54904;54.350;18.664;2022-10-31T00:18:41;13.80;99.90
18321;DHT22;54904;54.350;18.664;2022-10-31T00:21:09;13.80;99.90
18321;DHT22;54904;54.350;18.664;2022-10-31T00:23:36;13.80;99.90
18321;DHT22;54904;54.350;18.664;2022-10-31T00:26:04;13.80;99.90
18321;DHT22;54904;54.350;18.664;2022-10-31T00:28:32;13.80;99.90
18321;DHT22;54904;54.350;18.664;2022-10-31T00:31:00;13.80;99.90
18321;DHT22;54904;54.350;18.664;2022-10-31T00:33:28;13.90;99.90
18321;DHT22;54904;54.350;18.664;2022-10-31T00:35:55;13.80;99.90
18321;DHT22;54904;54.350;18.664;2022-10-31T00:38:24;13.80;99.90
18321;DHT22;54904;54.350;18.664;2022-10-31T00:40:51;13.80;99.90
18321;DHT22;54904;54.350;18.664;2022-10-31T00:43:19;13.80;99.90
18321;DHT22;54904;54.350;18.664;2022-10-31T00:45:46;13.80;99.90
18321;DHT22;54904;54.350;18.664;2022-10-31T00:48:13;13.70;99.90
18321;DHT22;54904;54.350;18.664;2022-10-31T00:50:40;13.70;99.90
18321;DHT22;54904;54.350;18.664;2022-10-31T00:53:08;13.70;99.90
18321;DHT22;54904;54.350;18.664;2022-10-31T00:55:37;13.70;99.90
18321;DHT22;54904;54.350;18.664;2022-10-31T00:58:04;13.60;99.90
18321;DHT22;54904;54.350;18.664;2022-10-31T01:00:32;13.60;99.90
18321;DHT22;54904;54.350;18.664;2022-10-31T01:02:59;13.60;99.90
18321;DHT22;54904;54.350;18.664;2022-10-31T01:05:26;13.60;99.90
18321;DHT22;54904;54.350;18.664;2022-10-31T01:07:54;13.60;99.90
18321;DHT22;54904;54.350;18.664;2022-10-31T01:10:26;13.60;99.90
18321;DHT22;54904;54.350;18.664;2022-10-31T01:12:55;13.60;99.90
18321;DHT22;54904;54.350;18.664;2022-10-31T01:15:22;13.60;99.90
18321;DHT22;54904;54.350;18.664;2022-10-31T01:17:50;13.60;99.90
18321;DHT22;54904;54.350;18.664;2022-10-31T01:20:17;13.60;99.90
18321;DHT22;54904;54.350;18.664;2022-10-31T01:22:45;13.60;99.90
18321;DHT22;54904;54.350;18.664;2022-10-31T01:25:12;13.60;99.90
18321;DHT22;54904;54.350;18.664;2022-10-31T01:27:39;13.60;99.90
18321;DHT22;54904;54.350;18.664;2022-10-31T01:30:09;13.60;99.90
18321;DHT22;54904;54.350;18.664;2022-10-31T01:32:36;13.50;99.90
18321;DHT22;54904;54.350;18.664;2022-10-31T01:35:04;13.50;99.90
18321;DHT22;54904;54.350;18.664;2022-10-31T01:37:31;13.40;99.90
18321;DHT22;54904;54.350;18.664;2022-10-31T01:39:58;13.30;99.90
18321;DHT22;54904;54.350;18.664;2022-10-31T01:42:26;13.30;99.90
18321;DHT22;54904;54.350;18.664;2022-10-31T01:44:56;13.30;99.90
18321;DHT22;54904;54.350;18.664;2022-10-31T01:47:41;13.30;99.90
18321;DHT22;54904;54.350;18.664;2022-10-31T01:50:15;13.90;99.90
18321;DHT22;54904;54.350;18.664;2022-10-31T01:52:47;13.20;99.90
18321;DHT22;54904;54.350;18.664;2022-10-31T01:55:17;13.20;99.90
18321;DHT22;54904;54.350;18.664;2022-10-31T01:57:49;13.20;99.90
18321;DHT22;54904;54.350;18.664;2022-10-31T02:00:19;13.20;99.90
18321;DHT22;54904;54.350;18.664;2022-10-31T02:02:49;13.20;99.90
18321;DHT22;54904;54.350;18.664;2022-10-31T02:05:19;13.20;99.90
18321;DHT22;54904;54.350;18.664;2022-10-31T02:07:53;13.20;99.90
18321;DHT22;54904;54.350;18.664;2022-10-31T02:10:27;13.20;99.90
18321;DHT22;54904;54.350;18.664;2022-10-31T02:12:58;13.10;99.90
18321;DHT22;54904;54.350;18.664;2022-10-31T02:15:28;13.10;99.90
18321;DHT22;54904;54.350;18.664;2022-10-31T02:17:58;13.10;99.90
18321;DHT22;54904;54.350;18.664;2022-10-31T02:20:31;13.20;99.90
18321;DHT22;54904;54.350;18.664;2022-10-31T02:23:20;13.00;99.90
18321;DHT22;54904;54.350;18.664;2022-10-31T02:26:09;13.00;99.90
18321;DHT22;54904;54.350;18.664;2022-10-31T02:29:02;12.40;99.90
18321;DHT22;54904;54.350;18.664;2022-10-31T02:31:38;13.00;99.90
18321;DHT22;54904;54.350;18.664;2022-10-31T02:34:15;13.00;99.90
18321;DHT22;54904;54.350;18.664;2022-10-31T02:36:53;13.00;99.90
18321;DHT22;54904;54.350;18.664;2022-10-31T02:39:25;13.00;99.90
18321;DHT22;54904;54.350;18.664;2022-10-31T02:42:03;13.00;99.90
18321;DHT22;54904;54.350;18.664;2022-10-31T02:44:38;13.00;99.90
18321;DHT22;54904;54.350;18.664;2022-10-31T02:47:11;13.00;99.90
18321;DHT22;54904;54.350;18.664;2022-10-31T02:49:45;13.10;99.90
18321;DHT22;54904;54.350;18.664;2022-10-31T02:52:20;13.10;99.90
18321;DHT22;54904;54.350;18.664;2022-10-31T02:54:48;13.10;99.90
18321;DHT22;54904;54.350;18.664;2022-10-31T02:57:18;13.20;99.90
18321;DHT22;54904;54.350;18.664;2022-10-31T02:59:50;13.20;99.90
18321;DHT22;54904;54.350;18.664;2022-10-31T03:02:42;13.30;99.90
18321;DHT22;54904;54.350;18.664;2022-10-31T03:05:27;13.30;99.90
18321;DHT22;54904;54.350;18.664;2022-10-31T03:08:04;13.30;99.90
18321;DHT22;54904;54.350;18.664;2022-10-31T03:10:35;13.30;99.90
18321;DHT22;54904;54.350;18.664;2022-10-31T03:13:11;13.30;99.90
18321;DHT22;54904;54.350;18.664;2022-10-31T03:15:44;13.30;99.90
18321;DHT22;54904;54.350;18.664;2022-10-31T03:18:16;13.30;99.90
18321;DHT22;54904;54.350;18.664;2022-10-31T03:20:47;13.30;99.90
18321;DHT22;54904;54.350;18.664;2022-10-31T03:23:18;13.30;99.90
18321;DHT22;54904;54.350;18.664;2022-10-31T03:25:51;13.30;99.90
18321;DHT22;54904;54.350;18.664;2022-10-31T03:28:30;13.30;99.90
18321;DHT22;54904;54.350;18.664;2022-10-31T03:30:59;13.20;99.90
18321;DHT22;54904;54.350;18.664;2022-10-31T03:33:33;13.20;99.90
18321;DHT22;54904;54.350;18.664;2022-10-31T03:36:03;13.20;99.90
18321;DHT22;54904;54.350;18.664;2022-10-31T03:38:32;13.20;99.90
18321;DHT22;54904;54.350;18.664;2022-10-31T03:41:03;13.20;99.90
18321;DHT22;54904;54.350;18.664;2022-10-31T03:43:36;13.20;99.90
18321;DHT22;54904;54.350;18.664;2022-10-31T03:46:05;13.20;99.90
18321;DHT22;54904;54.350;18.664;2022-10-31T03:48:34;13.20;99.90
18321;DHT22;54904;54.350;18.664;2022-10-31T03:51:07;13.20;99.90
18321;DHT22;54904;54.350;18.664;2022-10-31T03:53:40;13.20;99.90
18321;DHT22;54904;54.350;18.664;2022-10-31T03:56:19;13.20;99.90
18321;DHT22;54904;54.350;18.664;2022-10-31T03:59:04;13.30;99.90
18321;DHT22;54904;54.350;18.664;2022-10-31T04:01:37;13.30;99.90
18321;DHT22;54904;54.350;18.664;2022-10-31T04:04:08;13.30;99.90
18321;DHT22;54904;54.350;18.664;2022-10-31T04:06:38;13.30;99.90
18321;DHT22;54904;54.350;18.664;2022-10-31T04:09:08;13.30;99.90
18321;DHT22;54904;54.350;18.664;2022-10-31T04:11:41;13.30;99.90
18321;DHT22;54904;54.350;18.664;2022-10-31T04:14:44;13.20;99.90
18321;DHT22;54904;54.350;18.664;2022-10-31T04:17:15;13.30;99.90
18321;DHT22;54904;54.350;18.664;2022-10-31T04:19:46;13.30;99.90
18321;DHT22;54904;54.350;18.664;2022-10-31T04:22:13;13.30;99.90
18321;DHT22;54904;54.350;18.664;2022-10-31T04:24:40;13.30;99.90
18321;DHT22;54904;54.350;18.664;2022-10-31T04:27:11;13.30;99.90
18321;DHT22;54904;54.350;18.664;2022-10-31T04:29:40;13.20;99.90
18321;DHT22;54904;54.350;18.664;2022-10-31T04:32:07;13.20;99.90
18321;DHT22;54904;54.350;18.664;2022-10-31T04:34:35;13.20;99.90
18321;DHT22;54904;54.350;18.664;2022-10-31T04:37:05;13.20;99.90
18321;DHT22;54904;54.350;18.664;2022-10-31T04:39:33;13.30;99.90
18321;DHT22;54904;54.350;18.664;2022-10-31T04:42:21;13.30;99.90
18321;DHT22;54904;54.350;18.664;2022-10-31T04:44:48;13.30;99.90
18321;DHT22;54904;54.350;18.664;2022-10-31T04:47:15;13.30;99.90
18321;DHT22;54904;54.350;18.664;2022-10-31T04:49:43;13.30;99.90
18321;DHT22;54904;54.350;18.664;2022-10-31T04:52:13;13.30;99.90
18321;DHT22;54904;54.350;18.664;2022-10-31T04:54:42;13.30;99.90
18321;DHT22;54904;54.350;18.664;2022-10-31T04:57:40;13.30;99.90
18321;DHT22;54904;54.350;18.664;2022-10-31T05:00:09;13.30;99.90
18321;DHT22;54904;54.350;18.664;2022-10-31T05:02:43;13.30;99.90
18321;DHT22;54904;54.350;18.664;2022-10-31T05:05:12;13.30;99.90
18321;DHT22;54904;54.350;18.664;2022-10-31T05:07:42;13.30;99.90
18321;DHT22;54904;54.350;18.664;2022-10-31T05:10:13;13.30;99.90
18321;DHT22;54904;54.350;18.664;2022-10-31T05:12:46;13.40;99.90
18321;DHT22;54904;54.350;18.664;2022-10-31T05:15:40;13.40;99.90
18321;DHT22;54904;54.350;18.664;2022-10-31T05:18:26;13.30;99.90
18321;DHT22;54904;54.350;18.664;2022-10-31T05:21:11;13.30;99.90
18321;DHT22;54904;54.350;18.664;2022-10-31T05:23:46;13.30;99.90
18321;DHT22;54904;54.350;18.664;2022-10-31T05:26:14;13.30;99.90
18321;DHT22;54904;54.350;18.664;2022-10-31T05:28:41;13.30;99.90
18321;DHT22;54904;54.350;18.664;2022-10-31T05:31:09;13.30;99.90
18321;DHT22;54904;54.350;18.664;2022-10-31T05:33:36;13.30;99.90
18321;DHT22;54904;54.350;18.664;2022-10-31T05:36:21;13.30;99.90
18321;DHT22;54904;54.350;18.664;2022-10-31T05:39:13;13.30;99.90
18321;DHT22;54904;54.350;18.664;2022-10-31T05:41:47;13.30;99.90
18321;DHT22;54904;54.350;18.664;2022-10-31T05:44:35;13.30;99.90
18321;DHT22;54904;54.350;18.664;2022-10-31T05:47:19;13.30;99.90
18321;DHT22;54904;54.350;18.664;2022-10-31T05:50:06;13.30;99.90
18321;DHT22;54904;54.350;18.664;2022-10-31T05:52:39;13.30;99.90
18321;DHT22;54904;54.350;18.664;2022-10-31T05:55:31;13.30;99.90
18321;DHT22;54904;54.350;18.664;2022-10-31T05:58:03;13.40;99.90
18321;DHT22;54904;54.350;18.664;2022-10-31T06:00:33;13.40;99.90
18321;DHT22;54904;54.350;18.664;2022-10-31T06:03:09;13.40;99.90
18321;DHT22;54904;54.350;18.664;2022-10-31T06:06:05;13.40;99.90
18321;DHT22;54904;54.350;18.664;2022-10-31T06:08:36;13.50;99.90
18321;DHT22;54904;54.350;18.664;2022-10-31T06:11:08;13.50;99.90
18321;DHT22;54904;54.350;18.664;2022-10-31T06:13:54;13.50;99.90
18321;DHT22;54904;54.350;18.664;2022-10-31T06:16:31;13.40;99.90
18321;DHT22;54904;54.350;18.664;2022-10-31T06:19:11;13.50;99.90
18321;DHT22;54904;54.350;18.664;2022-10-31T06:21:40;13.60;99.90
18321;DHT22;54904;54.350;18.664;2022-10-31T06:24:07;13.50;99.90
18321;DHT22;54904;54.350;18.664;2022-10-31T06:26:59;13.60;99.90
18321;DHT22;54904;54.350;18.664;2022-10-31T06:29:26;13.60;99.90
18321;DHT22;54904;54.350;18.664;2022-10-31T06:32:10;13.60;99.90
18321;DHT22;54904;54.350;18.664;2022-10-31T06:34:42;13.70;99.90
18321;DHT22;54904;54.350;18.664;2022-10-31T06:37:11;13.70;99.90
18321;DHT22;54904;54.350;18.664;2022-10-31T06:39:41;13.70;99.90
18321;DHT22;54904;54.350;18.664;2022-10-31T06:42:11;13.70;99.90
18321;DHT22;54904;54.350;18.664;2022-10-31T06:44:39;13.70;99.90
18321;DHT22;54904;54.350;18.664;2022-10-31T06:47:24;13.70;99.90
18321;DHT22;54904;54.350;18.664;2022-10-31T06:49:54;13.70;99.90
18321;DHT22;54904;54.350;18.664;2022-10-31T06:52:23;13.70;99.90
18321;DHT22;54904;54.350;18.664;2022-10-31T06:54:51;13.70;99.90
18321;DHT22;54904;54.350;18.664;2022-10-31T06:57:21;13.80;99.90
18321;DHT22;54904;54.350;18.664;2022-10-31T06:59:49;13.80;99.90
18321;DHT22;54904;54.350;18.664;2022-10-31T07:02:24;13.80;99.90
18321;DHT22;54904;54.350;18.664;2022-10-31T07:04:52;13.90;99.90
18321;DHT22;54904;54.350;18.664;2022-10-31T07:07:19;13.90;99.90
18321;DHT22;54904;54.350;18.664;2022-10-31T07:09:47;13.90;99.90
18321;DHT22;54904;54.350;18.664;2022-10-31T07:12:17;13.80;99.90
18321;DHT22;54904;54.350;18.664;2022-10-31T07:14:55;13.80;99.90
18321;DHT22;54904;54.350;18.664;2022-10-31T07:17:23;13.90;99.90
18321;DHT22;54904;54.350;18.664;2022-10-31T07:19:54;13.90;99.90
18321;DHT22;54904;54.350;18.664;2022-10-31T07:22:21;14.00;99.90
18321;DHT22;54904;54.350;18.664;2022-10-31T07:24:49;13.90;99.90
18321;DHT22;54904;54.350;18.664;2022-10-31T07:27:38;13.90;99.90
18321;DHT22;54904;54.350;18.664;2022-10-31T07:30:12;13.90;99.90
18321;DHT22;54904;54.350;18.664;2022-10-31T07:32:40;13.90;99.90
18321;DHT22;54904;54.350;18.664;2022-10-31T07:35:09;13.90;99.90
18321;DHT22;54904;54.350;18.664;2022-10-31T07:37:46;13.90;99.90
18321;DHT22;54904;54.350;18.664;2022-10-31T07:40:15;13.90;99.90
18321;DHT22;54904;54.350;18.664;2022-10-31T07:42:45;13.90;99.90
18321;DHT22;54904;54.350;18.664;2022-10-31T07:45:34;14.00;99.90
18321;DHT22;54904;54.350;18.664;2022-10-31T07:48:24;14.00;99.90
18321;DHT22;54904;54.350;18.664;2022-10-31T07:51:30;14.00;99.90
18321;DHT22;54904;54.350;18.664;2022-10-31T07:54:25;14.00;99.90
18321;DHT22;54904;54.350;18.664;2022-10-31T07:56:53;14.00;99.90
18321;DHT22;54904;54.350;18.664;2022-10-31T07:59:20;14.00;99.90
18321;DHT22;54904;54.350;18.664;2022-10-31T08:01:49;14.00;99.90
18321;DHT22;54904;54.350;18.664;2022-10-31T08:04:36;14.10;99.90
18321;DHT22;54904;54.350;18.664;2022-10-31T08:07:22;14.00;99.90
18321;DHT22;54904;54.350;18.664;2022-10-31T08:10:04;14.00;99.90
18321;DHT22;54904;54.350;18.664;2022-10-31T08:12:33;14.10;99.90
18321;DHT22;54904;54.350;18.664;2022-10-31T08:15:02;14.10;99.90
18321;DHT22;54904;54.350;18.664;2022-10-31T08:17:36;14.10;99.90
18321;DHT22;54904;54.350;18.664;2022-10-31T08:20:05;14.10;99.90
18321;DHT22;54904;54.350;18.664;2022-10-31T08:22:35;14.10;99.90
18321;DHT22;54904;54.350;18.664;2022-10-31T08:25:03;14.00;99.90
18321;DHT22;54904;54.350;18.664;2022-10-31T08:27:30;14.00;99.90
18321;DHT22;54904;54.350;18.664;2022-10-31T08:30:00;14.10;99.90
18321;DHT22;54904;54.350;18.664;2022-10-31T08:32:27;14.10;99.90
18321;DHT22;54904;54.350;18.664;2022-10-31T08:34:58;14.10;99.90
18321;DHT22;54904;54.350;18.664;2022-10-31T08:37:44;14.10;99.90
18321;DHT22;54904;54.350;18.664;2022-10-31T08:40:11;14.10;99.90
18321;DHT22;54904;54.350;18.664;2022-10-31T08:42:40;14.10;99.90
18321;DHT22;54904;54.350;18.664;2022-10-31T08:45:07;14.20;99.90
18321;DHT22;54904;54.350;18.664;2022-10-31T08:47:35;14.30;99.90
18321;DHT22;54904;54.350;18.664;2022-10-31T08:50:05;14.30;99.90
18321;DHT22;54904;54.350;18.664;2022-10-31T08:52:34;14.30;99.90
18321;DHT22;54904;54.350;18.664;2022-10-31T08:55:03;14.30;99.90
18321;DHT22;54904;54.350;18.664;2022-10-31T08:58:03;14.40;99.90
18321;DHT22;54904;54.350;18.664;2022-10-31T09:00:40;14.30;99.90
18321;DHT22;54904;54.350;18.664;2022-10-31T09:03:19;14.40;99.90
18321;DHT22;54904;54.350;18.664;2022-10-31T09:05:48;14.40;99.90
18321;DHT22;54904;54.350;18.664;2022-10-31T09:08:15;14.40;99.90
18321;DHT22;54904;54.350;18.664;2022-10-31T09:10:45;14.50;99.90
18321;DHT22;54904;54.350;18.664;2022-10-31T09:13:18;14.50;99.90
18321;DHT22;54904;54.350;18.664;2022-10-31T09:16:17;14.50;99.90
18321;DHT22;54904;54.350;18.664;2022-10-31T09:18:44;14.50;99.90
18321;DHT22;54904;54.350;18.664;2022-10-31T09:21:17;14.50;99.90
18321;DHT22;54904;54.350;18.664;2022-10-31T09:23:45;14.40;99.90
18321;DHT22;54904;54.350;18.664;2022-10-31T09:26:14;14.50;99.90
18321;DHT22;54904;54.350;18.664;2022-10-31T09:29:14;14.50;99.90
18321;DHT22;54904;54.350;18.664;2022-10-31T09:31:43;14.50;99.90
18321;DHT22;54904;54.350;18.664;2022-10-31T09:34:29;14.50;99.90
18321;DHT22;54904;54.350;18.664;2022-10-31T09:37:06;14.60;99.90
18321;DHT22;54904;54.350;18.664;2022-10-31T09:39:35;14.60;99.90
18321;DHT22;54904;54.350;18.664;2022-10-31T09:42:26;14.60;99.90
18321;DHT22;54904;54.350;18.664;2022-10-31T09:45:04;14.60;99.90
18321;DHT22;54904;54.350;18.664;2022-10-31T09:47:44;14.60;99.90
18321;DHT22;54904;54.350;18.664;2022-10-31T09:50:38;14.60;99.90
18321;DHT22;54904;54.350;18.664;2022-10-31T09:53:37;14.70;99.90
18321;DHT22;54904;54.350;18.664;2022-10-31T09:56:09;14.70;99.90
18321;DHT22;54904;54.350;18.664;2022-10-31T09:58:42;14.80;99.90
18321;DHT22;54904;54.350;18.664;2022-10-31T10:01:28;14.80;99.90
18321;DHT22;54904;54.350;18.664;2022-10-31T10:04:00;14.80;99.90
18321;DHT22;54904;54.350;18.664;2022-10-31T10:06:58;14.80;99.90
18321;DHT22;54904;54.350;18.664;2022-10-31T10:09:46;14.80;99.90
18321;DHT22;54904;54.350;18.664;2022-10-31T10:12:43;14.90;99.90
18321;DHT22;54904;54.350;18.664;2022-10-31T10:18:17;14.90;99.90
18321;DHT22;54904;54.350;18.664;2022-10-31T10:21:05;14.90;99.90
18321;DHT22;54904;54.350;18.664;2022-10-31T10:23:58;15.00;99.90
18321;DHT22;54904;54.350;18.664;2022-10-31T10:26:33;15.00;99.90
18321;DHT22;54904;54.350;18.664;2022-10-31T10:29:16;15.10;99.90
18321;DHT22;54904;54.350;18.664;2022-10-31T10:31:46;15.10;99.90
18321;DHT22;54904;54.350;18.664;2022-10-31T10:34:22;15.10;99.90
18321;DHT22;54904;54.350;18.664;2022-10-31T10:36:55;15.10;99.90
18321;DHT22;54904;54.350;18.664;2022-10-31T10:39:28;15.10;99.90
18321;DHT22;54904;54.350;18.664;2022-10-31T10:41:59;15.10;99.90
18321;DHT22;54904;54.350;18.664;2022-10-31T10:44:46;15.10;99.90
18321;DHT22;54904;54.350;18.664;2022-10-31T10:47:39;15.10;99.90
18321;DHT22;54904;54.350;18.664;2022-10-31T10:50:12;15.10;99.90
18321;DHT22;54904;54.350;18.664;2022-10-31T10:52:47;15.10;99.90
18321;DHT22;54904;54.350;18.664;2022-10-31T10:55:23;15.10;99.90
18321;DHT22;54904;54.350;18.664;2022-10-31T10:57:58;15.10;99.90
18321;DHT22;54904;54.350;18.664;2022-10-31T11:00:29;15.10;99.90
18321;DHT22;54904;54.350;18.664;2022-10-31T11:03:00;15.10;99.90
18321;DHT22;54904;54.350;18.664;2022-10-31T11:05:33;15.20;99.90
18321;DHT22;54904;54.350;18.664;2022-10-31T11:08:02;15.20;99.90
18321;DHT22;54904;54.350;18.664;2022-10-31T11:10:29;15.30;99.90
18321;DHT22;54904;54.350;18.664;2022-10-31T11:13:17;15.30;99.90
18321;DHT22;54904;54.350;18.664;2022-10-31T11:15:56;15.40;99.90
18321;DHT22;54904;54.350;18.664;2022-10-31T11:18:26;15.40;99.90
18321;DHT22;54904;54.350;18.664;2022-10-31T11:20:56;15.40;99.90
18321;DHT22;54904;54.350;18.664;2022-10-31T11:23:25;14.60;99.90
18321;DHT22;54904;54.350;18.664;2022-10-31T11:25:55;15.40;99.90
18321;DHT22;54904;54.350;18.664;2022-10-31T11:28:25;15.50;99.90
18321;DHT22;54904;54.350;18.664;2022-10-31T11:30:54;15.50;99.90
18321;DHT22;54904;54.350;18.664;2022-10-31T11:33:26;15.50;99.90
18321;DHT22;54904;54.350;18.664;2022-10-31T11:35:55;15.50;99.90
18321;DHT22;54904;54.350;18.664;2022-10-31T11:38:32;15.50;99.90
18321;DHT22;54904;54.350;18.664;2022-10-31T11:41:07;15.50;99.90
18321;DHT22;54904;54.350;18.664;2022-10-31T11:43:38;15.50;99.90
18321;DHT22;54904;54.350;18.664;2022-10-31T11:46:10;15.60;99.90
18321;DHT22;54904;54.350;18.664;2022-10-31T11:48:38;15.60;99.90
18321;DHT22;54904;54.350;18.664;2022-10-31T11:51:05;15.60;99.90
18321;DHT22;54904;54.350;18.664;2022-10-31T11:53:35;15.60;99.90
18321;DHT22;54904;54.350;18.664;2022-10-31T11:56:09;15.60;99.90
18321;DHT22;54904;54.350;18.664;2022-10-31T11:58:39;15.50;99.90
18321;DHT22;54904;54.350;18.664;2022-10-31T12:01:23;15.50;99.90
18321;DHT22;54904;54.350;18.664;2022-10-31T12:03:57;15.50;99.90
18321;DHT22;54904;54.350;18.664;2022-10-31T12:06:31;15.60;99.90
18321;DHT22;54904;54.350;18.664;2022-10-31T12:09:00;15.50;99.90
18321;DHT22;54904;54.350;18.664;2022-10-31T12:11:43;15.60;99.90
18321;DHT22;54904;54.350;18.664;2022-10-31T12:14:26;15.70;99.90
18321;DHT22;54904;54.350;18.664;2022-10-31T12:16:58;15.50;99.90
18321;DHT22;54904;54.350;18.664;2022-10-31T12:19:36;15.60;99.90
18321;DHT22;54904;54.350;18.664;2022-10-31T12:22:13;15.50;99.90
18321;DHT22;54904;54.350;18.664;2022-10-31T12:24:52;15.50;99.90
18321;DHT22;54904;54.350;18.664;2022-10-31T12:27:32;15.60;99.90
18321;DHT22;54904;54.350;18.664;2022-10-31T12:30:14;15.60;99.90
18321;DHT22;54904;54.350;18.664;2022-10-31T12:32:52;15.60;99.90
18321;DHT22;54904;54.350;18.664;2022-10-31T12:35:30;15.60;99.90
18321;DHT22;54904;54.350;18.664;2022-10-31T12:38:25;15.60;99.90
18321;DHT22;54904;54.350;18.664;2022-10-31T12:41:20;15.60;99.90
18321;DHT22;54904;54.350;18.664;2022-10-31T12:43:57;15.60;99.90
18321;DHT22;54904;54.350;18.664;2022-10-31T12:46:42;15.60;99.90
18321;DHT22;54904;54.350;18.664;2022-10-31T12:49:33;15.70;99.90
18321;DHT22;54904;54.350;18.664;2022-10-31T12:52:12;15.70;99.90
18321;DHT22;54904;54.350;18.664;2022-10-31T12:54:55;15.70;99.90
18321;DHT22;54904;54.350;18.664;2022-10-31T12:57:32;15.70;99.90
18321;DHT22;54904;54.350;18.664;2022-10-31T13:00:04;15.70;99.90
18321;DHT22;54904;54.350;18.664;2022-10-31T13:02:38;15.80;99.90
18321;DHT22;54904;54.350;18.664;2022-10-31T13:05:14;15.80;99.90
18321;DHT22;54904;54.350;18.664;2022-10-31T13:07:48;15.80;99.90
18321;DHT22;54904;54.350;18.664;2022-10-31T13:10:20;15.80;99.90
18321;DHT22;54904;54.350;18.664;2022-10-31T13:12:52;15.80;99.90
18321;DHT22;54904;54.350;18.664;2022-10-31T13:15:22;15.80;99.90
18321;DHT22;54904;54.350;18.664;2022-10-31T13:17:56;15.90;99.90
18321;DHT22;54904;54.350;18.664;2022-10-31T13:20:28;15.90;99.90
18321;DHT22;54904;54.350;18.664;2022-10-31T13:23:03;15.90;99.90
18321;DHT22;54904;54.350;18.664;2022-10-31T13:25:36;15.90;99.90
18321;DHT22;54904;54.350;18.664;2022-10-31T13:28:21;15.90;99.90
18321;DHT22;54904;54.350;18.664;2022-10-31T13:30:51;15.90;99.90
18321;DHT22;54904;54.350;18.664;2022-10-31T13:33:24;15.90;99.90
18321;DHT22;54904;54.350;18.664;2022-10-31T13:36:02;15.90;99.90
18321;DHT22;54904;54.350;18.664;2022-10-31T13:38:36;15.90;99.90
18321;DHT22;54904;54.350;18.664;2022-10-31T13:41:13;15.90;99.90
18321;DHT22;54904;54.350;18.664;2022-10-31T13:43:58;16.00;99.90
18321;DHT22;54904;54.350;18.664;2022-10-31T13:46:35;16.00;99.90
18321;DHT22;54904;54.350;18.664;2022-10-31T13:49:19;16.00;99.90
18321;DHT22;54904;54.350;18.664;2022-10-31T13:51:48;16.00;99.90
18321;DHT22;54904;54.350;18.664;2022-10-31T13:54:22;16.00;99.90
18321;DHT22;54904;54.350;18.664;2022-10-31T13:56:50;16.00;99.90
18321;DHT22;54904;54.350;18.664;2022-10-31T13:59:21;16.00;99.90
18321;DHT22;54904;54.350;18.664;2022-10-31T14:01:52;16.00;99.90
18321;DHT22;54904;54.350;18.664;2022-10-31T14:04:23;16.00;99.90
18321;DHT22;54904;54.350;18.664;2022-10-31T14:06:57;16.00;99.90
18321;DHT22;54904;54.350;18.664;2022-10-31T14:09:28;16.00;99.90
18321;DHT22;54904;54.350;18.664;2022-10-31T14:11:59;16.00;99.90
18321;DHT22;54904;54.350;18.664;2022-10-31T14:14:42;16.00;99.90
18321;DHT22;54904;54.350;18.664;2022-10-31T14:17:19;16.00;99.90
18321;DHT22;54904;54.350;18.664;2022-10-31T14:20:00;16.00;99.90
18321;DHT22;54904;54.350;18.664;2022-10-31T14:22:32;16.00;99.90
18321;DHT22;54904;54.350;18.664;2022-10-31T14:25:00;16.00;99.90
18321;DHT22;54904;54.350;18.664;2022-10-31T14:27:43;16.00;99.90
18321;DHT22;54904;54.350;18.664;2022-10-31T14:30:19;16.00;99.90
18321;DHT22;54904;54.350;18.664;2022-10-31T14:32:53;16.00;99.90
18321;DHT22;54904;54.350;18.664;2022-10-31T14:35:27;16.00;99.90
18321;DHT22;54904;54.350;18.664;2022-10-31T14:41:16;16.00;99.90
18321;DHT22;54904;54.350;18.664;2022-10-31T14:46:53;16.00;99.90
18321;DHT22;54904;54.350;18.664;2022-10-31T14:49:36;16.00;99.90
18321;DHT22;54904;54.350;18.664;2022-10-31T14:52:08;16.00;99.90
18321;DHT22;54904;54.350;18.664;2022-10-31T14:54:42;16.00;99.90
18321;DHT22;54904;54.350;18.664;2022-10-31T14:57:16;16.00;99.90
18321;DHT22;54904;54.350;18.664;2022-10-31T14:59:48;16.00;99.90
18321;DHT22;54904;54.350;18.664;2022-10-31T15:02:21;16.00;99.90
18321;DHT22;54904;54.350;18.664;2022-10-31T15:04:51;16.00;99.90
18321;DHT22;54904;54.350;18.664;2022-10-31T15:07:22;16.00;99.90
18321;DHT22;54904;54.350;18.664;2022-10-31T15:09:56;16.00;99.90
18321;DHT22;54904;54.350;18.664;2022-10-31T15:12:25;16.00;99.90
18321;DHT22;54904;54.350;18.664;2022-10-31T15:14:53;16.00;99.90
18321;DHT22;54904;54.350;18.664;2022-10-31T15:17:22;16.00;99.90
18321;DHT22;54904;54.350;18.664;2022-10-31T15:19:51;16.00;99.90
18321;DHT22;54904;54.350;18.664;2022-10-31T15:22:23;16.00;99.90
18321;DHT22;54904;54.350;18.664;2022-10-31T15:24:51;16.00;99.90
18321;DHT22;54904;54.350;18.664;2022-10-31T15:27:23;16.00;99.90
18321;DHT22;54904;54.350;18.664;2022-10-31T15:29:51;16.00;99.90
18321;DHT22;54904;54.350;18.664;2022-10-31T15:32:20;16.00;99.90
18321;DHT22;54904;54.350;18.664;2022-10-31T15:34:49;16.00;99.90
18321;DHT22;54904;54.350;18.664;2022-10-31T15:37:20;16.00;99.90
18321;DHT22;54904;54.350;18.664;2022-10-31T15:39:48;16.00;99.90
18321;DHT22;54904;54.350;18.664;2022-10-31T15:42:21;16.00;99.90
18321;DHT22;54904;54.350;18.664;2022-10-31T15:44:52;16.00;99.90
18321;DHT22;54904;54.350;18.664;2022-10-31T15:47:23;16.00;99.90
18321;DHT22;54904;54.350;18.664;2022-10-31T15:49:52;16.00;99.90
18321;DHT22;54904;54.350;18.664;2022-10-31T15:52:27;16.00;99.90
18321;DHT22;54904;54.350;18.664;2022-10-31T15:54:59;16.10;99.90
18321;DHT22;54904;54.350;18.664;2022-10-31T15:57:27;16.10;99.90
18321;DHT22;54904;54.350;18.664;2022-10-31T15:59:56;16.10;99.90
18321;DHT22;54904;54.350;18.664;2022-10-31T16:02:25;16.10;99.90
18321;DHT22;54904;54.350;18.664;2022-10-31T16:04:54;16.10;99.90
18321;DHT22;54904;54.350;18.664;2022-10-31T16:07:24;16.00;99.90